Time;durP1;ratioP1;P1;durP2;ratioP2;P2;SDS_P1;SDS_P2;PMS_P1;PMS_P2;Temp;Humidity;BMP_temperature;BMP_pressure;BME280_temperature;BME280_humidity;BME280_pressure;Samples;Min_cycle;Max_cycle;Signal;HPM_P1;HPM_P2
2022/03/22 00:01:22;;;;;;;42.05;18.77;;;;;;;;;;5033678;28;20053;-65
2022/03/22 00:03:48;;;;;;;38.67;19.95;;;;;;;;;;5036351;28;20140;-65
2022/03/22 00:06:14;;;;;;;41.83;18.42;;;;;;;;;;5036086;28;20074;-64
2022/03/22 00:08:41;;;;;;;38.83;20.27;;;;;;;;;;5038372;28;20044;-64
2022/03/22 00:11:08;;;;;;;40.42;21.63;;;;;;;;;;5035364;28;20583;-64
2022/03/22 00:13:34;;;;;;;43.10;19.50;;;;;;;;;;5037240;28;20052;-64
2022/03/22 00:16:01;;;;;;;40.45;19.95;;;;;;;;;;5035106;28;20040;-65
2022/03/22 00:18:27;;;;;;;45.10;21.60;;;;;;;;;;5032234;28;20041;-64
2022/03/22 00:20:54;;;;;;;39.25;20.25;;;;;;;;;;5035293;28;20061;-64
2022/03/22 00:23:21;;;;;;;42.20;19.83;;;;;;;;;;5036478;28;20064;-65
2022/03/22 00:25:47;;;;;;;42.55;21.15;;;;;;;;;;5035910;28;20053;-64
2022/03/22 00:28:14;;;;;;;45.38;20.75;;;;;;;;;;5019427;28;20147;-64
2022/03/22 00:30:40;;;;;;;44.80;22.33;;;;;;;;;;5035203;28;20055;-64
2022/03/22 00:33:08;;;;;;;40.80;22.00;;;;;;;;;;5032299;28;20565;-65
2022/03/22 00:35:36;;;;;;;45.53;21.98;;;;;;;;;;5034939;28;20118;-64
2022/03/22 00:38:03;;;;;;;43.78;21.75;;;;;;;;;;5035636;28;20497;-64
2022/03/22 00:40:29;;;;;;;45.05;22.15;;;;;;;;;;5032614;28;20091;-64
2022/03/22 00:42:56;;;;;;;47.15;23.95;;;;;;;;;;5034072;28;20115;-64
2022/03/22 00:45:24;;;;;;;51.95;22.02;;;;;;;;;;5034903;28;20433;-65
2022/03/22 00:47:50;;;;;;;;;;;;;;;;;;5034403;28;20735;-64
2022/03/22 00:50:19;;;;;;;48.00;24.17;;;;;;;;;;5034653;28;20366;-65
2022/03/22 00:52:45;;;;;;;46.65;21.98;;;;;;;;;;5035346;28;20412;-65
2022/03/22 00:55:12;;;;;;;43.38;22.67;;;;;;;;;;5034517;28;20543;-64
2022/03/22 00:57:38;;;;;;;48.88;24.67;;;;;;;;;;5035524;28;20148;-65
2022/03/22 01:00:06;;;;;;;43.17;22.98;;;;;;;;;;5036073;28;20475;-65
2022/03/22 01:02:34;;;;;;;46.72;22.58;;;;;;;;;;5037490;28;20059;-64
2022/03/22 01:05:01;;;;;;;46.47;23.02;;;;;;;;;;5035572;28;20045;-64
2022/03/22 01:07:27;;;;;;;47.70;24.13;;;;;;;;;;5035120;28;20040;-64
2022/03/22 01:09:54;;;;;;;43.92;23.05;;;;;;;;;;5038902;28;20190;-65
2022/03/22 01:12:21;;;;;;;52.08;24.90;;;;;;;;;;5033198;28;20061;-64
2022/03/22 01:14:47;;;;;;;50.75;23.75;;;;;;;;;;5035848;28;20053;-64
2022/03/22 01:17:13;;;;;;;43.45;23.52;;;;;;;;;;5034366;28;20037;-64
2022/03/22 01:19:40;;;;;;;47.35;23.45;;;;;;;;;;5036493;28;20079;-64
2022/03/22 01:22:06;;;;;;;50.95;25.30;;;;;;;;;;5034821;28;20052;-64
2022/03/22 01:24:32;;;;;;;44.25;24.40;;;;;;;;;;5032480;28;20064;-64
2022/03/22 01:26:58;;;;;;;50.25;24.40;;;;;;;;;;5032767;28;20101;-64
2022/03/22 01:29:25;;;;;;;47.08;25.17;;;;;;;;;;5033831;28;20090;-64
2022/03/22 01:31:51;;;;;;;50.42;23.67;;;;;;;;;;5032236;28;20041;-64
2022/03/22 01:34:17;;;;;;;70.60;25.40;;;;;;;;;;5033575;28;20044;-64
2022/03/22 01:36:43;;;;;;;50.42;25.90;;;;;;;;;;5017504;28;20167;-64
2022/03/22 01:39:09;;;;;;;51.00;25.50;;;;;;;;;;5034007;28;20042;-64
2022/03/22 01:41:35;;;;;;;45.20;24.25;;;;;;;;;;5036276;28;20057;-64
2022/03/22 01:44:02;;;;;;;51.08;24.95;;;;;;;;;;5033747;28;20159;-64
2022/03/22 01:46:28;;;;;;;48.35;25.63;;;;;;;;;;5033157;28;20753;-64
2022/03/22 01:48:55;;;;;;;55.55;26.33;;;;;;;;;;5031664;28;20079;-64
2022/03/22 01:51:22;;;;;;;50.63;25.42;;;;;;;;;;5036102;28;20735;-64
2022/03/22 01:53:49;;;;;;;52.00;25.80;;;;;;;;;;5016568;28;20099;-64
2022/03/22 01:56:16;;;;;;;46.20;24.88;;;;;;;;;;5030835;28;20044;-64
2022/03/22 01:58:42;;;;;;;49.42;25.10;;;;;;;;;;5034607;28;20051;-64
2022/03/22 02:06:40;;;;;;;46.30;24.30;;;;;;;;;;5032629;28;20037;-64
2022/03/22 02:09:06;;;;;;;52.05;24.73;;;;;;;;;;5030331;28;20124;-64
2022/03/22 02:11:32;;;;;;;47.10;23.42;;;;;;;;;;5033964;28;20505;-64
2022/03/22 02:13:58;;;;;;;40.47;22.20;;;;;;;;;;5032919;28;20041;-65
2022/03/22 02:16:25;;;;;;;44.22;23.27;;;;;;;;;;5034827;28;20081;-65
2022/03/22 02:18:51;;;;;;;45.97;24.02;;;;;;;;;;5029176;28;20057;-65
2022/03/22 02:21:19;;;;;;;45.00;21.27;;;;;;;;;;5033581;28;20072;-64
2022/03/22 02:23:49;;;;;;;40.78;20.42;;;;;;;;;;5034379;28;20567;-65
2022/03/22 02:26:16;;;;;;;37.88;20.50;;;;;;;;;;5033171;28;20057;-65
2022/03/22 02:28:43;;;;;;;41.90;23.10;;;;;;;;;;5037949;28;20045;-65
2022/03/22 02:31:10;;;;;;;42.90;22.75;;;;;;;;;;5033457;28;20665;-65
2022/03/22 02:33:37;;;;;;;47.78;22.80;;;;;;;;;;5033991;28;20040;-65
2022/03/22 02:36:04;;;;;;;48.55;23.92;;;;;;;;;;5032946;28;20048;-64
2022/03/22 02:38:30;;;;;;;56.97;25.33;;;;;;;;;;5034147;28;20076;-63
2022/03/22 02:40:56;;;;;;;46.30;23.88;;;;;;;;;;5033047;28;20107;-64
2022/03/22 02:43:22;;;;;;;49.65;24.77;;;;;;;;;;5016621;28;20045;-64
2022/03/22 02:45:48;;;;;;;47.53;23.52;;;;;;;;;;5031246;28;20037;-64
2022/03/22 02:48:15;;;;;;;50.25;24.73;;;;;;;;;;5035205;28;20042;-64
2022/03/22 02:50:41;;;;;;;48.03;23.52;;;;;;;;;;5032937;28;20602;-64
2022/03/22 02:53:07;;;;;;;43.35;21.95;;;;;;;;;;5031222;28;20037;-64
2022/03/22 02:55:33;;;;;;;40.40;22.27;;;;;;;;;;5031048;28;20156;-64
2022/03/22 02:58:00;;;;;;;42.30;21.52;;;;;;;;;;5016340;28;20060;-64
2022/03/22 03:00:26;;;;;;;41.88;21.65;;;;;;;;;;5033062;28;20137;-64
2022/03/22 03:02:53;;;;;;;45.33;22.75;;;;;;;;;;5031589;28;20462;-65
2022/03/22 03:05:20;;;;;;;43.42;23.13;;;;;;;;;;5030754;28;20045;-64
2022/03/22 03:07:47;;;;;;;48.55;22.63;;;;;;;;;;5031006;28;20525;-64
2022/03/22 03:10:13;;;;;;;48.83;25.25;;;;;;;;;;4998677;28;20112;-65
2022/03/22 03:12:40;;;;;;;50.92;25.35;;;;;;;;;;5031892;28;20057;-64
2022/03/22 03:15:08;;;;;;;47.05;23.80;;;;;;;;;;5030690;28;20171;-65
2022/03/22 03:17:35;;;;;;;46.67;24.50;;;;;;;;;;5031855;28;20041;-64
2022/03/22 03:20:01;;;;;;;50.10;24.40;;;;;;;;;;5033531;28;20829;-64
2022/03/22 03:22:27;;;;;;;46.10;25.45;;;;;;;;;;5031938;28;20143;-64
2022/03/22 03:24:53;;;;;;;47.92;25.40;;;;;;;;;;5031777;28;20053;-64
2022/03/22 03:27:21;;;;;;;48.63;24.60;;;;;;;;;;5034864;28;20657;-65
2022/03/22 03:29:48;;;;;;;56.63;25.80;;;;;;;;;;5031887;28;20465;-65
2022/03/22 03:32:14;;;;;;;46.38;25.83;;;;;;;;;;5012837;28;20073;-65
2022/03/22 03:34:40;;;;;;;49.72;25.77;;;;;;;;;;5033008;28;20044;-65
2022/03/22 03:37:07;;;;;;;50.90;25.63;;;;;;;;;;5029956;28;20048;-65
2022/03/22 03:39:34;;;;;;;50.30;25.77;;;;;;;;;;5032917;28;20118;-65
2022/03/22 03:42:02;;;;;;;51.08;24.23;;;;;;;;;;5031424;28;20040;-65
2022/03/22 03:47:14;;;;;;;50.83;25.92;;;;;;;;;;5028951;28;21283;-65
2022/03/22 03:49:43;;;;;;;47.65;25.25;;;;;;;;;;5035121;28;20095;-64
2022/03/22 03:52:11;;;;;;;49.47;26.17;;;;;;;;;;5027836;28;20229;-64
2022/03/22 03:54:37;;;;;;;52.58;25.67;;;;;;;;;;5031185;28;20483;-64
2022/03/22 03:57:03;;;;;;;46.67;25.85;;;;;;;;;;5036795;28;21388;-64
2022/03/22 03:59:29;;;;;;;50.78;25.65;;;;;;;;;;5032322;28;20037;-65
2022/03/22 04:01:56;;;;;;;48.28;26.75;;;;;;;;;;5029214;28;20040;-64
2022/03/22 04:04:22;;;;;;;51.58;26.55;;;;;;;;;;5014967;28;20041;-64
2022/03/22 04:06:48;;;;;;;49.05;25.80;;;;;;;;;;5031103;28;20048;-64
2022/03/22 04:09:15;;;;;;;52.05;26.00;;;;;;;;;;5030588;28;20049;-65
2022/03/22 04:11:41;;;;;;;57.03;26.55;;;;;;;;;;5031817;28;20076;-65
2022/03/22 04:14:08;;;;;;;58.00;28.42;;;;;;;;;;5030069;28;20123;-64
2022/03/22 04:16:36;;;;;;;47.70;25.92;;;;;;;;;;5032783;28;20052;-65
2022/03/22 04:19:04;;;;;;;53.58;25.58;;;;;;;;;;5030717;28;20174;-64
2022/03/22 04:21:30;;;;;;;51.42;25.98;;;;;;;;;;5034804;28;20132;-64
2022/03/22 04:23:58;;;;;;;53.92;28.00;;;;;;;;;;5028512;28;20041;-64
2022/03/22 04:26:25;;;;;;;53.28;26.65;;;;;;;;;;5035642;28;20045;-64
2022/03/22 04:34:20;;;;;;;44.80;25.65;;;;;;;;;;5035713;28;20474;-64
2022/03/22 04:36:59;;;;;;;49.88;25.48;;;;;;;;;;5034965;28;20406;-64
2022/03/22 04:39:26;;;;;;;48.60;26.58;;;;;;;;;;5035996;28;20605;-64
2022/03/22 04:41:52;;;;;;;53.20;26.17;;;;;;;;;;5034250;28;20037;-64
2022/03/22 04:44:19;;;;;;;45.17;24.42;;;;;;;;;;5035993;28;20478;-65
2022/03/22 04:46:45;;;;;;;57.35;26.92;;;;;;;;;;5035640;28;20160;-64
2022/03/22 04:49:11;;;;;;;52.17;27.08;;;;;;;;;;5015257;28;20043;-64
2022/03/22 04:57:07;;;;;;;49.10;26.10;;;;;;;;;;5016073;28;20503;-64
2022/03/22 04:59:34;;;;;;;49.85;25.75;;;;;;;;;;5036584;28;20041;-64
2022/03/22 05:02:00;;;;;;;53.13;26.98;;;;;;;;;;5036062;28;20044;-64
2022/03/22 05:04:26;;;;;;;50.88;26.52;;;;;;;;;;5030959;28;20048;-64
2022/03/22 05:06:53;;;;;;;51.10;26.83;;;;;;;;;;5034068;28;20122;-64
2022/03/22 05:09:20;;;;;;;50.00;26.92;;;;;;;;;;5033594;28;20054;-65
2022/03/22 05:11:46;;;;;;;57.17;28.13;;;;;;;;;;5013873;28;20045;-64
2022/03/22 05:14:12;;;;;;;54.38;25.70;;;;;;;;;;5034420;28;20037;-64
2022/03/22 05:16:39;;;;;;;51.05;26.20;;;;;;;;;;5037551;28;20037;-64
2022/03/22 05:19:05;;;;;;;54.03;26.73;;;;;;;;;;5032441;28;20076;-64
2022/03/22 05:21:32;;;;;;;52.20;27.20;;;;;;;;;;5036732;28;21425;-64
2022/03/22 05:23:59;;;;;;;51.65;27.05;;;;;;;;;;5033468;28;20049;-64
2022/03/22 05:26:26;;;;;;;49.33;26.98;;;;;;;;;;5036333;28;20033;-64
2022/03/22 05:28:52;;;;;;;57.97;27.08;;;;;;;;;;5035537;28;20041;-64
2022/03/22 05:31:21;;;;;;;52.30;26.90;;;;;;;;;;5032881;28;20565;-65
2022/03/22 05:33:48;;;;;;;50.72;26.73;;;;;;;;;;5031489;28;20375;-63
2022/03/22 05:36:14;;;;;;;53.95;26.92;;;;;;;;;;5030718;28;20191;-64
2022/03/22 05:38:40;;;;;;;49.38;25.98;;;;;;;;;;5031593;28;20045;-63
2022/03/22 05:41:08;;;;;;;51.67;26.25;;;;;;;;;;5037712;28;20076;-63
2022/03/22 05:43:35;;;;;;;57.95;26.33;;;;;;;;;;5026132;28;20420;-63
2022/03/22 05:46:02;;;;;;;52.95;27.08;;;;;;;;;;5032513;28;20071;-64
2022/03/22 05:48:29;;;;;;;48.50;27.38;;;;;;;;;;5028460;28;20535;-64
2022/03/22 05:50:55;;;;;;;54.65;26.77;;;;;;;;;;5027788;28;20137;-64
2022/03/22 05:53:21;;;;;;;52.13;27.58;;;;;;;;;;5014492;28;20049;-64
2022/03/22 05:55:48;;;;;;;55.28;26.55;;;;;;;;;;5034325;28;20072;-64
2022/03/22 05:58:14;;;;;;;45.55;25.35;;;;;;;;;;5037332;28;20471;-66
2022/03/22 06:00:40;;;;;;;46.42;24.98;;;;;;;;;;5032113;28;20044;-65
2022/03/22 06:03:06;;;;;;;47.55;25.85;;;;;;;;;;5030167;28;20089;-63
2022/03/22 06:05:33;;;;;;;57.78;25.80;;;;;;;;;;5029851;28;20037;-65
2022/03/22 06:07:59;;;;;;;49.38;27.17;;;;;;;;;;5016659;28;20106;-64
2022/03/22 06:10:27;;;;;;;57.88;27.50;;;;;;;;;;5034565;28;20049;-63
2022/03/22 06:12:55;;;;;;;50.55;26.95;;;;;;;;;;5033026;28;20055;-64
2022/03/22 06:15:22;;;;;;;55.17;27.30;;;;;;;;;;5034381;28;20518;-63
2022/03/22 06:17:49;;;;;;;49.38;26.52;;;;;;;;;;5032814;28;20842;-65
2022/03/22 06:20:16;;;;;;;52.38;25.45;;;;;;;;;;5030829;28;20053;-63
2022/03/22 06:22:43;;;;;;;52.35;25.50;;;;;;;;;;5031817;28;20045;-63
2022/03/22 06:25:10;;;;;;;50.03;26.30;;;;;;;;;;5036137;28;20479;-63
2022/03/22 06:27:36;;;;;;;46.72;26.08;;;;;;;;;;5032389;28;20041;-63
2022/03/22 06:30:04;;;;;;;62.85;28.38;;;;;;;;;;5030691;28;20091;-63
2022/03/22 06:32:30;;;;;;;56.17;27.70;;;;;;;;;;5034213;28;20037;-63
2022/03/22 06:34:56;;;;;;;49.20;25.75;;;;;;;;;;5036669;28;20295;-63
2022/03/22 06:37:23;;;;;;;51.40;25.17;;;;;;;;;;5034337;28;20114;-63
2022/03/22 06:39:49;;;;;;;56.13;26.55;;;;;;;;;;5034688;28;20045;-63
2022/03/22 06:42:15;;;;;;;52.03;26.27;;;;;;;;;;5032678;28;20040;-63
2022/03/22 06:44:41;;;;;;;49.47;25.77;;;;;;;;;;5028861;28;20033;-63
2022/03/22 06:47:07;;;;;;;49.65;25.92;;;;;;;;;;5007765;28;20056;-63
2022/03/22 06:49:33;;;;;;;48.83;26.05;;;;;;;;;;5026043;28;20124;-64
2022/03/22 06:52:00;;;;;;;52.97;26.20;;;;;;;;;;5029763;28;20079;-63
2022/03/22 06:54:27;;;;;;;48.30;25.83;;;;;;;;;;5034756;28;20044;-63
2022/03/22 06:56:55;;;;;;;47.88;25.48;;;;;;;;;;5032058;28;20167;-64
2022/03/22 06:59:21;;;;;;;47.75;24.85;;;;;;;;;;5034778;28;20048;-63
2022/03/22 07:01:47;;;;;;;52.10;26.35;;;;;;;;;;5030482;28;20056;-62
2022/03/22 07:04:13;;;;;;;54.38;27.00;;;;;;;;;;5032293;28;20044;-62
2022/03/22 07:06:39;;;;;;;45.88;26.20;;;;;;;;;;5034293;28;20090;-63
2022/03/22 07:09:07;;;;;;;58.30;27.50;;;;;;;;;;5028674;28;20127;-62
2022/03/22 07:14:18;;;;;;;53.35;26.05;;;;;;;;;;5031340;28;20087;-62
2022/03/22 07:16:47;;;;;;;53.35;28.48;;;;;;;;;;5032957;28;20090;-62
2022/03/22 07:19:14;;;;;;;44.78;24.05;;;;;;;;;;5033101;28;20084;-62
2022/03/22 07:21:41;;;;;;;43.65;26.35;;;;;;;;;;5030761;28;20053;-63
2022/03/22 07:24:08;;;;;;;52.38;25.70;;;;;;;;;;5032009;28;20032;-63
2022/03/22 07:26:34;;;;;;;46.03;26.42;;;;;;;;;;5033446;28;20049;-63
2022/03/22 07:29:01;;;;;;;50.72;26.88;;;;;;;;;;5030967;28;20033;-63
2022/03/22 07:31:27;;;;;;;49.70;26.25;;;;;;;;;;5032198;28;20033;-64
2022/03/22 07:33:53;;;;;;;50.88;27.00;;;;;;;;;;5033497;28;20037;-63
2022/03/22 07:36:19;;;;;;;49.47;25.42;;;;;;;;;;5029967;28;20056;-63
2022/03/22 07:38:46;;;;;;;48.58;26.52;;;;;;;;;;5031803;28;20041;-63
2022/03/22 07:41:12;;;;;;;56.92;26.92;;;;;;;;;;5032611;28;20045;-63
2022/03/22 07:43:40;;;;;;;50.53;27.38;;;;;;;;;;5031311;28;20045;-63
2022/03/22 07:46:06;;;;;;;50.63;26.05;;;;;;;;;;5033140;28;20072;-63
2022/03/22 07:48:32;;;;;;;50.15;27.15;;;;;;;;;;5031958;28;20126;-63
2022/03/22 07:53:44;;;;;;;50.60;26.63;;;;;;;;;;5029704;28;20566;-63
2022/03/22 07:56:10;;;;;;;53.80;26.00;;;;;;;;;;5016323;28;20045;-63
2022/03/22 07:58:36;;;;;;;47.03;24.08;;;;;;;;;;5029417;28;20056;-63
2022/03/22 08:01:02;;;;;;;50.08;24.10;;;;;;;;;;5031939;28;20044;-63
2022/03/22 08:03:29;;;;;;;45.10;24.83;;;;;;;;;;5034985;28;20073;-63
2022/03/22 08:05:55;;;;;;;47.17;24.60;;;;;;;;;;5032896;28;20032;-63
2022/03/22 08:08:21;;;;;;;48.70;24.30;;;;;;;;;;5032961;28;20562;-63
2022/03/22 08:10:48;;;;;;;46.03;23.38;;;;;;;;;;5036028;28;20049;-63
2022/03/22 08:13:14;;;;;;;44.17;23.30;;;;;;;;;;5037789;28;20044;-63
2022/03/22 08:15:41;;;;;;;43.65;23.23;;;;;;;;;;5032236;28;20052;-63
2022/03/22 08:18:10;;;;;;;49.45;23.48;;;;;;;;;;5037380;28;20126;-62
2022/03/22 08:20:36;;;;;;;45.72;23.92;;;;;;;;;;5035568;28;20096;-63
2022/03/22 08:23:04;;;;;;;47.53;24.75;;;;;;;;;;5034578;28;20045;-62
2022/03/22 08:25:32;;;;;;;49.95;23.80;;;;;;;;;;5035418;28;20047;-62
2022/03/22 08:27:59;;;;;;;45.63;22.98;;;;;;;;;;5037443;28;20591;-63
2022/03/22 08:30:26;;;;;;;41.45;22.17;;;;;;;;;;5031821;28;20209;-62
2022/03/22 08:32:53;;;;;;;44.83;22.35;;;;;;;;;;5038061;28;20045;-62
2022/03/22 08:35:21;;;;;;;41.13;22.50;;;;;;;;;;5034146;28;20613;-62
2022/03/22 08:37:47;;;;;;;47.72;23.05;;;;;;;;;;5035664;28;20557;-62
2022/03/22 08:40:14;;;;;;;43.05;23.90;;;;;;;;;;5033765;28;20057;-63
2022/03/22 08:42:47;;;;;;;45.13;22.17;;;;;;;;;;5037455;28;20128;-63
2022/03/22 08:45:15;;;;;;;45.05;23.27;;;;;;;;;;5031837;28;20041;-63
2022/03/22 08:47:45;;;;;;;41.25;22.67;;;;;;;;;;5035095;28;20057;-63
2022/03/22 08:50:12;;;;;;;39.10;22.00;;;;;;;;;;5029024;28;20041;-63
2022/03/22 08:52:38;;;;;;;46.22;23.08;;;;;;;;;;5033904;28;20148;-63
2022/03/22 08:55:07;;;;;;;43.38;22.83;;;;;;;;;;5035384;28;20155;-63
2022/03/22 08:57:34;;;;;;;41.55;21.60;;;;;;;;;;5035703;28;20106;-63
2022/03/22 09:00:00;;;;;;;37.70;20.70;;;;;;;;;;5032122;28;20040;-63
2022/03/22 09:02:26;;;;;;;42.55;23.08;;;;;;;;;;5033780;28;20053;-63
2022/03/22 09:07:37;;;;;;;44.33;23.10;;;;;;;;;;5036408;28;20609;-63
2022/03/22 09:10:03;;;;;;;40.25;22.05;;;;;;;;;;5034248;28;20068;-63
2022/03/22 09:12:30;;;;;;;42.28;21.45;;;;;;;;;;5034085;28;20107;-62
2022/03/22 09:14:57;;;;;;;43.58;20.45;;;;;;;;;;5034677;28;20076;-63
2022/03/22 09:17:23;;;;;;;35.85;21.35;;;;;;;;;;5036349;28;20056;-62
2022/03/22 09:19:49;;;;;;;46.53;20.27;;;;;;;;;;5031292;28;20095;-62
2022/03/22 09:22:15;;;;;;;36.45;20.35;;;;;;;;;;5033140;28;20061;-63
2022/03/22 09:24:41;;;;;;;42.95;21.55;;;;;;;;;;5034030;28;20378;-63
2022/03/22 09:27:07;;;;;;;39.10;21.17;;;;;;;;;;5033438;28;20080;-63
2022/03/22 09:29:34;;;;;;;41.60;20.70;;;;;;;;;;5035451;28;20045;-63
2022/03/22 09:32:00;;;;;;;43.70;20.98;;;;;;;;;;5035306;28;20078;-63
2022/03/22 09:34:28;;;;;;;43.33;20.98;;;;;;;;;;5034266;28;20491;-63
2022/03/22 09:36:54;;;;;;;37.58;20.73;;;;;;;;;;5033684;28;20041;-63
2022/03/22 09:39:20;;;;;;;36.65;19.52;;;;;;;;;;5036222;28;20107;-63
2022/03/22 09:41:49;;;;;;;40.67;22.63;;;;;;;;;;5035249;28;20127;-63
2022/03/22 09:44:21;;;;;;;43.45;21.38;;;;;;;;;;5031876;28;21183;-63
2022/03/22 09:46:50;;;;;;;40.47;19.23;;;;;;;;;;5031683;28;20099;-63
2022/03/22 09:49:17;;;;;;;46.40;20.67;;;;;;;;;;5031814;28;20037;-63
2022/03/22 09:51:44;;;;;;;46.33;21.98;;;;;;;;;;5030795;28;20098;-63
2022/03/22 09:54:12;;;;;;;42.00;22.08;;;;;;;;;;5033195;28;20049;-63
2022/03/22 09:56:40;;;;;;;39.92;20.83;;;;;;;;;;5033495;28;20045;-63
2022/03/22 09:59:06;;;;;;;37.47;19.85;;;;;;;;;;5031945;28;20061;-63
2022/03/22 10:01:33;;;;;;;44.53;21.23;;;;;;;;;;5037814;28;20590;-63
2022/03/22 10:04:01;;;;;;;38.75;20.60;;;;;;;;;;5033369;28;20073;-63
2022/03/22 10:06:29;;;;;;;41.75;21.30;;;;;;;;;;5034529;28;20106;-63
2022/03/22 10:08:55;;;;;;;47.78;23.00;;;;;;;;;;5035082;28;20482;-63
2022/03/22 10:11:21;;;;;;;43.90;22.45;;;;;;;;;;5030956;28;20073;-63
2022/03/22 10:13:51;;;;;;;41.67;21.88;;;;;;;;;;5034157;28;20144;-63
2022/03/22 10:16:17;;;;;;;43.30;22.38;;;;;;;;;;5033598;28;20128;-63
2022/03/22 10:18:44;;;;;;;41.75;22.10;;;;;;;;;;5030262;28;20115;-63
2022/03/22 10:21:10;;;;;;;40.90;21.10;;;;;;;;;;5031466;28;20037;-63
2022/03/22 10:23:48;;;;;;;38.97;22.25;;;;;;;;;;5033887;28;20056;-63
2022/03/22 10:26:14;;;;;;;43.00;21.58;;;;;;;;;;5034567;28;20067;-63
2022/03/22 10:28:49;;;;;;;37.55;20.73;;;;;;;;;;5029907;28;20798;-63
2022/03/22 10:31:16;;;;;;;36.70;20.52;;;;;;;;;;5033196;28;20049;-63
2022/03/22 10:33:50;;;;;;;39.85;21.33;;;;;;;;;;5032483;28;20041;-63
2022/03/22 10:36:16;;;;;;;42.28;20.35;;;;;;;;;;5034001;28;20048;-63
2022/03/22 10:38:53;;;;;;;38.63;20.20;;;;;;;;;;5034798;28;20132;-63
2022/03/22 10:41:24;;;;;;;41.63;21.52;;;;;;;;;;5034006;28;20049;-63
2022/03/22 10:44:00;;;;;;;35.60;19.35;;;;;;;;;;5032064;28;20103;-63
2022/03/22 10:46:27;;;;;;;35.42;19.63;;;;;;;;;;5033521;28;20602;-63
2022/03/22 10:49:00;;;;;;;34.03;19.98;;;;;;;;;;5033532;28;20092;-63
2022/03/22 10:51:32;;;;;;;38.70;20.83;;;;;;;;;;5032663;28;20068;-63
2022/03/22 10:53:58;;;;;;;41.67;21.13;;;;;;;;;;5031807;28;20490;-63
2022/03/22 10:56:26;;;;;;;44.75;20.92;;;;;;;;;;5034684;28;20763;-63
2022/03/22 10:58:55;;;;;;;42.45;19.63;;;;;;;;;;5031379;28;20060;-63
2022/03/22 11:01:22;;;;;;;34.08;19.48;;;;;;;;;;5037028;28;20044;-63
2022/03/22 11:03:49;;;;;;;37.50;20.25;;;;;;;;;;5030309;28;20045;-63
2022/03/22 11:06:16;;;;;;;31.73;18.23;;;;;;;;;;5029643;28;20080;-63
2022/03/22 11:08:43;;;;;;;37.90;20.83;;;;;;;;;;5031470;28;21004;-63
2022/03/22 11:11:09;;;;;;;39.70;19.50;;;;;;;;;;5033602;28;20506;-63
2022/03/22 11:13:36;;;;;;;43.20;18.92;;;;;;;;;;5032294;28;20113;-63
2022/03/22 11:16:03;;;;;;;36.78;18.83;;;;;;;;;;5035329;28;20123;-63
2022/03/22 11:18:30;;;;;;;37.85;17.42;;;;;;;;;;5033360;28;20582;-63
2022/03/22 11:20:57;;;;;;;36.85;19.40;;;;;;;;;;5030525;28;20073;-63
2022/03/22 11:23:24;;;;;;;35.22;18.52;;;;;;;;;;5031960;28;20124;-62
2022/03/22 11:25:50;;;;;;;38.55;18.88;;;;;;;;;;5034906;28;20053;-63
2022/03/22 11:28:19;;;;;;;35.42;18.65;;;;;;;;;;5034514;28;20041;-62
2022/03/22 11:30:46;;;;;;;36.30;18.73;;;;;;;;;;5030650;28;20059;-63
2022/03/22 11:36:01;;;;;;;36.90;19.98;;;;;;;;;;5031326;28;20044;-63
2022/03/22 11:38:39;;;;;;;42.60;20.15;;;;;;;;;;5031316;28;20049;-63
2022/03/22 11:43:50;;;;;;;38.83;18.40;;;;;;;;;;5029634;28;19921;-63
2022/03/22 11:46:16;;;;;;;43.20;18.35;;;;;;;;;;5031661;28;20548;-63
2022/03/22 11:48:42;;;;;;;40.38;18.38;;;;;;;;;;5026857;28;20036;-63
2022/03/22 11:51:10;;;;;;;35.90;18.90;;;;;;;;;;5031619;28;20146;-63
2022/03/22 11:53:43;;;;;;;40.70;19.50;;;;;;;;;;5027690;28;20048;-63
2022/03/22 11:56:10;;;;;;;41.63;19.90;;;;;;;;;;5032379;28;20045;-63
2022/03/22 11:58:36;;;;;;;33.90;18.50;;;;;;;;;;5030513;28;20049;-63
2022/03/22 12:01:03;;;;;;;35.67;18.63;;;;;;;;;;5030042;28;20056;-63
2022/03/22 12:03:31;;;;;;;37.92;20.13;;;;;;;;;;5030630;28;20126;-63
2022/03/22 12:06:08;;;;;;;40.10;20.35;;;;;;;;;;5034201;28;20060;-63
2022/03/22 12:08:36;;;;;;;40.35;19.92;;;;;;;;;;5012618;28;20049;-63
2022/03/22 12:11:02;;;;;;;39.45;19.02;;;;;;;;;;5031688;28;20124;-63
2022/03/22 12:13:30;;;;;;;39.58;20.90;;;;;;;;;;5031858;28;20051;-63
2022/03/22 12:15:58;;;;;;;41.35;20.70;;;;;;;;;;5034603;28;20049;-63
2022/03/22 12:18:29;;;;;;;42.72;19.45;;;;;;;;;;5034641;28;20033;-63
2022/03/22 12:20:56;;;;;;;39.30;19.65;;;;;;;;;;5026001;28;20060;-63
2022/03/22 12:23:23;;;;;;;38.17;19.87;;;;;;;;;;5033301;28;20056;-63
2022/03/22 12:25:51;;;;;;;36.38;19.52;;;;;;;;;;5028257;28;20383;-63
2022/03/22 12:28:18;;;;;;;36.80;18.90;;;;;;;;;;5027934;28;20049;-63
2022/03/22 12:30:45;;;;;;;38.63;19.67;;;;;;;;;;5028984;28;20053;-63
2022/03/22 12:33:14;;;;;;;37.53;19.13;;;;;;;;;;5033712;28;20041;-63
2022/03/22 12:35:41;;;;;;;35.60;18.17;;;;;;;;;;5032003;28;20445;-63
2022/03/22 12:38:07;;;;;;;37.92;19.55;;;;;;;;;;5032701;28;20102;-63
2022/03/22 12:40:34;;;;;;;34.80;18.35;;;;;;;;;;5030667;28;20143;-63
2022/03/22 12:43:01;;;;;;;36.72;17.40;;;;;;;;;;5032565;28;20037;-62
2022/03/22 12:45:28;;;;;;;33.57;17.60;;;;;;;;;;5008670;28;20246;-64
2022/03/22 12:47:56;;;;;;;34.30;16.85;;;;;;;;;;5029411;28;20037;-63
2022/03/22 12:50:23;;;;;;;36.22;16.75;;;;;;;;;;5033989;28;20042;-63
2022/03/22 12:52:51;;;;;;;34.38;16.92;;;;;;;;;;5035273;28;20101;-63
2022/03/22 12:55:18;;;;;;;33.75;17.27;;;;;;;;;;5032250;28;20112;-63
2022/03/22 12:57:46;;;;;;;37.17;18.58;;;;;;;;;;5035369;28;20053;-63
2022/03/22 13:00:24;;;;;;;37.08;17.42;;;;;;;;;;5033766;28;20068;-63
2022/03/22 13:02:51;;;;;;;32.55;16.08;;;;;;;;;;5015782;28;20054;-63
2022/03/22 13:05:23;;;;;;;39.08;18.58;;;;;;;;;;5034428;28;20397;-63
2022/03/22 13:07:49;;;;;;;35.20;16.88;;;;;;;;;;5019511;28;20399;-63
2022/03/22 13:13:00;;;;;;;36.15;16.75;;;;;;;;;;5032640;28;20482;-63
2022/03/22 13:15:26;;;;;;;36.50;18.05;;;;;;;;;;5035151;28;20605;-62
2022/03/22 13:17:53;;;;;;;34.33;17.13;;;;;;;;;;5033177;28;20489;-64
2022/03/22 13:20:22;;;;;;;33.65;17.08;;;;;;;;;;5037304;28;20198;-64
2022/03/22 13:22:50;;;;;;;34.90;16.05;;;;;;;;;;5017807;28;20045;-63
2022/03/22 13:25:18;;;;;;;37.85;15.15;;;;;;;;;;5033999;28;20043;-63
2022/03/22 13:27:52;;;;;;;34.20;15.18;;;;;;;;;;5033838;28;20144;-63
2022/03/22 13:30:19;;;;;;;34.97;14.95;;;;;;;;;;5037528;28;20033;-64
2022/03/22 13:32:46;;;;;;;26.55;12.60;;;;;;;;;;5015469;28;20045;-63
2022/03/22 13:35:12;;;;;;;29.88;14.48;;;;;;;;;;5035553;28;20036;-63
2022/03/22 13:37:43;;;;;;;25.85;13.45;;;;;;;;;;5030504;28;20046;-63
2022/03/22 13:40:10;;;;;;;31.95;14.90;;;;;;;;;;5036566;28;20037;-63
2022/03/22 13:42:36;;;;;;;38.08;16.63;;;;;;;;;;5033723;28;20080;-64
2022/03/22 13:45:07;;;;;;;28.60;15.60;;;;;;;;;;5034615;28;20441;-63
2022/03/22 13:47:35;;;;;;;32.28;15.52;;;;;;;;;;5034365;28;20509;-63
2022/03/22 13:50:01;;;;;;;;;;;;;;;;;;5033134;28;20060;-63
2022/03/22 13:52:28;;;;;;;29.25;14.93;;;;;;;;;;5034823;28;20362;-64
2022/03/22 13:54:57;;;;;;;30.10;14.90;;;;;;;;;;5034703;28;20087;-63
2022/03/22 13:57:26;;;;;;;26.27;13.30;;;;;;;;;;5037229;28;20291;-63
2022/03/22 14:00:00;;;;;;;33.38;15.20;;;;;;;;;;5029617;28;20053;-64
2022/03/22 14:02:26;;;;;;;30.42;14.00;;;;;;;;;;5031851;28;20148;-64
2022/03/22 14:04:52;;;;;;;27.88;14.43;;;;;;;;;;5033404;28;20060;-64
2022/03/22 14:07:18;;;;;;;31.25;15.65;;;;;;;;;;5035027;28;20097;-63
2022/03/22 14:09:45;;;;;;;27.00;14.38;;;;;;;;;;5011080;28;22030;-64
2022/03/22 14:12:11;;;;;;;29.77;14.48;;;;;;;;;;5034916;28;20046;-63
2022/03/22 14:14:37;;;;;;;36.60;15.60;;;;;;;;;;5032866;28;20079;-64
2022/03/22 14:17:03;;;;;;;31.40;15.82;;;;;;;;;;5037450;28;20036;-64
2022/03/22 14:19:29;;;;;;;30.58;15.38;;;;;;;;;;5030488;28;20045;-64
2022/03/22 14:21:56;;;;;;;28.55;13.80;;;;;;;;;;5034696;28;20215;-64
2022/03/22 14:24:23;;;;;;;34.63;15.57;;;;;;;;;;5032482;28;20076;-64
2022/03/22 14:26:53;;;;;;;31.98;16.13;;;;;;;;;;5035025;28;20079;-63
2022/03/22 14:29:19;;;;;;;32.83;16.90;;;;;;;;;;5030337;28;20088;-65
2022/03/22 14:31:45;;;;;;;34.53;15.88;;;;;;;;;;5033994;28;20055;-64
2022/03/22 14:35:46;;;;;;;34.70;16.17;;;;;;;;;;5031597;28;20536;-64
2022/03/22 14:36:58;;;;;;;26.98;15.23;;;;;;;;;;5033339;28;20041;-64
2022/03/22 14:39:24;;;;;;;31.63;16.38;;;;;;;;;;5030436;28;20049;-64
2022/03/22 14:41:50;;;;;;;31.70;17.02;;;;;;;;;;5032554;28;20072;-64
2022/03/22 14:44:16;;;;;;;36.95;15.98;;;;;;;;;;5033791;28;20041;-64
2022/03/22 14:46:43;;;;;;;34.20;15.02;;;;;;;;;;5032372;28;20053;-64
2022/03/22 14:49:10;;;;;;;35.72;15.35;;;;;;;;;;5029764;28;20056;-64
2022/03/22 14:54:20;;;;;;;31.60;16.00;;;;;;;;;;5030236;28;20049;-64
2022/03/22 14:59:32;;;;;;;25.83;14.65;;;;;;;;;;5031349;28;20041;-64